Time;durP1;ratioP1;P1;durP2;ratioP2;P2;SDS_P1;SDS_P2;PMS_P1;PMS_P2;Temp;Humidity;BMP_temperature;BMP_pressure;BME280_temperature;BME280_humidity;BME280_pressure;Samples;Min_cycle;Max_cycle;Signal;HPM_P1;HPM_P2
2024/01/27 07:34:12;;;;;;;;;;;;;;;;;;5291115;23;19906;-96
2024/01/27 18:33:35;;;;;;;;;;;;;;;;;;5181374;23;19923;-92
2024/01/27 18:36:01;;;;;;;;;;;;;;;;;;4915550;29;20002;-94
2024/01/27 18:38:26;;;;;;;;;;;;;;;;;;4919981;29;19967;-92
2024/01/27 18:40:52;;;;;;;;;;;;;;;;;;4913931;29;19923;-92
2024/01/27 18:43:17;;;;;;;;;;;;;;;;;;4934043;29;20377;-94
2024/01/27 18:45:42;;;;;;;;;;;;;;;;;;4921168;29;20303;-92
2024/01/27 18:48:08;;;;;;;;;;;;;;;;;;4919975;29;19915;-94
2024/01/27 18:50:33;;;;;;;;;;;;;;;;;;4919922;29;19966;-92
2024/01/27 18:52:59;;;;;;;;;;;;;;;;;;4919337;29;19915;-95
2024/01/27 18:55:29;;;;;;;;;;;;;;;;;;4919917;29;19922;-92
2024/01/27 18:57:54;;;;;;;;;;;;;;;;;;4919661;29;19915;-93
2024/01/27 19:00:20;;;;;;;;;;;;;;;;;;4920480;29;20006;-93
2024/01/27 19:02:45;;;;;;;;;;;;;;;;;;4922697;29;19915;-94
2024/01/27 19:05:11;;;;;;;;;;;;;;;;;;4927618;29;19970;-92
2024/01/27 19:07:36;;;;;;;;;;;;;;;;;;4930029;29;19914;-92
2024/01/27 19:10:02;;;;;;;;;;;;;;;;;;4928766;29;19918;-95
2024/01/27 19:12:27;;;;;;;;;;;;;;;;;;4914506;29;19915;-95
2024/01/27 19:14:53;;;;;;;;;;;;;;;;;;4916247;29;20399;-95
2024/01/27 19:17:18;;;;;;;;;;;;;;;;;;4900716;29;20315;-95
2024/01/27 19:19:43;;;;;;;;;;;;;;;;;;4900637;29;20362;-95
2024/01/27 19:22:09;;;;;;;;;;;;;;;;;;4900358;29;19938;-93
2024/01/27 19:24:35;;;;;;;;;;;;;;;;;;4900592;29;19916;-94
2024/01/27 19:27:01;;;;;;;;;;;;;;;;;;4902200;29;20374;-93
2024/01/27 19:29:26;;;;;;;;;;;;;;;;;;4919532;29;19919;-94
2024/01/27 19:31:51;;;;;;;;;;;;;;;;;;4922878;29;19919;-94
2024/01/27 19:34:17;;;;;;;;;;;;;;;;;;4933949;29;20382;-95
2024/01/27 19:36:42;;;;;;;;;;;;;;;;;;4926770;29;19926;-96
2024/01/27 19:39:10;;;;;;;;;;;;;;;;;;4924080;29;19915;-96
2024/01/27 19:41:35;;;;;;;;;;;;;;;;;;4928117;23;19924;-93
2024/01/27 19:44:00;;;;;;;;;;;;;;;;;;4901672;29;19976;-93
2024/01/27 19:46:25;;;;;;;;;;;;;;;;;;4918545;29;19915;-95
2024/01/27 19:48:51;;;;;;;;;;;;;;;;;;4918885;29;19915;-94
2024/01/27 19:51:16;;;;;;;;;;;;;;;;;;4918513;29;19919;-94
2024/01/27 19:53:42;;;;;;;;;;;;;;;;;;4920358;29;19915;-96
2024/01/27 19:56:08;;;;;;;;;;;;;;;;;;4918335;29;19922;-96
2024/01/27 19:58:33;;;;;;;;;;;;;;;;;;4918633;29;19919;-96
2024/01/27 20:00:59;;;;;;;;;;;;;;;;;;4918437;29;20033;-96
2024/01/27 20:03:24;;;;;;;;;;;;;;;;;;4923186;29;19915;-96
2024/01/27 20:05:51;;;;;;;;;;;;;;;;;;4926131;29;19922;-96
2024/01/27 20:08:16;;;;;;;;;;;;;;;;;;4930543;29;19915;-96
2024/01/27 20:10:42;;;;;;;;;;;;;;;;;;4930340;29;19915;-96
2024/01/27 20:13:07;;;;;;;;;;;;;;;;;;4920669;29;19922;-96
2024/01/27 20:15:33;;;;;;;;;;;;;;;;;;4918677;29;20033;-96
2024/01/27 20:17:58;;;;;;;;;;;;;;;;;;4918632;29;19942;-96
2024/01/27 20:20:25;;;;;;;;;;;;;;;;;;4921775;29;19915;-95
2024/01/27 20:22:52;;;;;;;;;;;;;;;;;;4921368;29;19915;-96
2024/01/27 20:25:18;;;;;;;;;;;;;;;;;;4920435;29;19915;-95
2024/01/27 20:27:45;;;;;;;;;;;;;;;;;;4919303;29;19919;-96
2024/01/27 20:30:11;;;;;;;;;;;;;;;;;;4918181;29;20002;-95
2024/01/27 20:32:37;;;;;;;;;;;;;;;;;;4917849;29;20009;-94
2024/01/27 20:35:03;;;;;;;;;;;;;;;;;;4918035;29;20022;-93
2024/01/27 20:37:28;;;;;;;;;;;;;;;;;;4906149;29;20280;-95
2024/01/27 20:39:54;;;;;;;;;;;;;;;;;;4904522;29;19986;-93
2024/01/27 20:42:19;;;;;;;;;;;;;;;;;;4894771;29;19975;-95
2024/01/27 20:44:46;;;;;;;;;;;;;;;;;;4899236;29;19915;-94
2024/01/27 20:47:12;;;;;;;;;;;;;;;;;;4899006;29;19963;-91
2024/01/27 20:49:39;;;;;;;;;;;;;;;;;;4898505;29;19916;-96
2024/01/27 20:52:04;;;;;;;;;;;;;;;;;;4899322;29;19998;-95
2024/01/27 20:54:31;;;;;;;;;;;;;;;;;;4900659;29;19955;-93
2024/01/27 20:56:56;;;;;;;;;;;;;;;;;;4909964;29;19919;-95
2024/01/27 20:59:22;;;;;;;;;;;;;;;;;;4898917;29;20394;-95
2024/01/27 21:01:47;;;;;;;;;;;;;;;;;;4904513;29;19921;-94
2024/01/27 21:04:13;;;;;;;;;;;;;;;;;;4917613;29;20374;-95
2024/01/27 21:06:38;;;;;;;;;;;;;;;;;;4917741;29;19915;-96
2024/01/27 21:09:05;;;;;;;;;;;;;;;;;;4917709;29;19915;-94
2024/01/27 21:11:33;;;;;;;;;;;;;;;;;;4902018;29;19926;-93
2024/01/27 21:13:59;;;;;;;;;;;;;;;;;;4905731;29;19922;-94
2024/01/27 21:16:24;;;;;;;;;;;;;;;;;;4917474;29;19915;-94
2024/01/27 21:18:49;;;;;;;;;;;;;;;;;;4898896;29;19947;-93
2024/01/27 21:21:15;;;;;;;;;;;;;;;;;;4898537;29;19922;-93
2024/01/27 21:23:41;;;;;;;;;;;;;;;;;;4898321;29;20435;-93
2024/01/27 21:26:06;;;;;;;;;;;;;;;;;;4898043;29;19919;-93
2024/01/27 21:28:31;;;;;;;;;;;;;;;;;;4887568;29;20063;-93
2024/01/27 21:30:57;;;;;;;;;;;;;;;;;;4893305;29;19971;-94
2024/01/27 21:33:22;;;;;;;;;;;;;;;;;;4902004;29;19919;-93
2024/01/27 21:35:48;;;;;;;;;;;;;;;;;;4903274;29;19919;-94
2024/01/27 21:38:13;;;;;;;;;;;;;;;;;;4912543;29;19926;-93
2024/01/27 21:40:39;;;;;;;;;;;;;;;;;;4902079;29;20489;-93
2024/01/27 21:43:06;;;;;;;;;;;;;;;;;;4894899;29;19920;-94
2024/01/27 21:45:31;;;;;;;;;;;;;;;;;;4901554;29;20006;-94
2024/01/27 21:47:58;;;;;;;;;;;;;;;;;;4885099;29;20379;-94
2024/01/27 21:50:23;;;;;;;;;;;;;;;;;;4891986;29;19944;-93
2024/01/27 21:52:48;;;;;;;;;;;;;;;;;;4887904;29;19916;-93
2024/01/27 21:55:14;;;;;;;;;;;;;;;;;;4897649;29;19967;-93
2024/01/27 21:57:39;;;;;;;;;;;;;;;;;;4899783;29;20353;-93
2024/01/27 22:00:05;;;;;;;;;;;;;;;;;;4895637;29;19915;-94
2024/01/27 22:02:34;;;;;;;;;;;;;;;;;;4893977;29;19923;-94
2024/01/27 22:04:59;;;;;;;;;;;;;;;;;;4893298;29;19962;-93
2024/01/27 22:07:24;;;;;;;;;;;;;;;;;;4902086;29;19915;-92
2024/01/27 22:09:50;;;;;;;;;;;;;;;;;;4908974;29;19916;-93
2024/01/27 22:12:18;;;;;;;;;;;;;;;;;;4901605;29;19915;-93
2024/01/27 22:14:43;;;;;;;;;;;;;;;;;;4899379;29;19919;-93
2024/01/27 22:17:08;;;;;;;;;;;;;;;;;;4900576;29;19916;-94
2024/01/27 22:19:34;;;;;;;;;;;;;;;;;;4896045;29;19912;-95
2024/01/27 22:21:59;;;;;;;;;;;;;;;;;;4901642;29;19924;-92
2024/01/27 22:24:24;;;;;;;;;;;;;;;;;;4898445;29;20343;-94
2024/01/27 22:26:50;;;;;;;;;;;;;;;;;;4897299;29;20290;-93
2024/01/27 22:29:19;;;;;;;;;;;;;;;;;;4900321;29;19915;-94
2024/01/27 22:31:44;;;;;;;;;;;;;;;;;;4900663;29;19918;-94
2024/01/27 22:34:10;;;;;;;;;;;;;;;;;;4901215;29;19915;-94
2024/01/27 22:36:36;;;;;;;;;;;;;;;;;;4902338;29;19982;-94
2024/01/27 22:39:01;;;;;;;;;;;;;;;;;;4900957;29;19919;-94
2024/01/27 22:41:26;;;;;;;;;;;;;;;;;;4903568;29;19923;-94
2024/01/27 22:43:55;;;;;;;;;;;;;;;;;;4902846;29;19916;-95
2024/01/27 22:46:20;;;;;;;;;;;;;;;;;;4912356;29;20382;-94
2024/01/27 22:48:47;;;;;;;;;;;;;;;;;;4901264;29;20006;-94
2024/01/27 22:51:12;;;;;;;;;;;;;;;;;;4900894;29;19916;-96
2024/01/27 22:53:37;;;;;;;;;;;;;;;;;;4900979;29;20354;-92
2024/01/27 22:56:03;;;;;;;;;;;;;;;;;;4900912;29;19955;-93
2024/01/27 22:58:32;;;;;;;;;;;;;;;;;;4900857;29;20414;-96
2024/01/27 23:00:58;;;;;;;;;;;;;;;;;;4894604;29;20022;-93
2024/01/27 23:03:23;;;;;;;;;;;;;;;;;;4906342;29;19927;-94
2024/01/27 23:05:49;;;;;;;;;;;;;;;;;;4900526;29;20022;-93
2024/01/27 23:08:14;;;;;;;;;;;;;;;;;;4890229;29;19955;-94
2024/01/27 23:10:41;;;;;;;;;;;;;;;;;;4900263;29;19974;-95
